sensor_id;sensor_type;location;lat;lon;timestamp;pressure;altitude;pressure_sealevel;temperature;humidity
60055;BME280;45930;53.514;55.904;2022-08-20T00:00:43;49571.72;;;-149.77;43.74
60055;BME280;45930;53.514;55.904;2022-08-20T00:01:44;49619.25;;;-149.77;43.78
60055;BME280;45930;53.514;55.904;2022-08-20T00:02:56;49662.84;;;-149.77;44.02
60055;BME280;45930;53.514;55.904;2022-08-20T00:03:57;49753.97;;;-149.77;44.11
60055;BME280;45930;53.514;55.904;2022-08-20T00:04:58;49736.13;;;-149.77;44.31
60055;BME280;45930;53.514;55.904;2022-08-20T00:06:14;49753.97;;;-149.77;44.24
60055;BME280;45930;53.514;55.904;2022-08-20T00:07:16;49692.56;;;-149.77;44.03
60055;BME280;45930;53.514;55.904;2022-08-20T00:08:16;49682.66;;;-149.77;43.82
60055;BME280;45930;53.514;55.904;2022-08-20T00:09:17;49591.53;;;-149.77;43.52
60055;BME280;45930;53.514;55.904;2022-08-20T00:10:18;49599.44;;;-149.77;43.19
60055;BME280;45930;53.514;55.904;2022-08-20T00:11:22;49599.44;;;-149.77;43.20
60055;BME280;45930;53.514;55.904;2022-08-20T00:12:24;49563.78;;;-149.77;42.85
60055;BME280;45930;53.514;55.904;2022-08-20T00:13:32;49496.44;;;-149.77;42.76
60055;BME280;45930;53.514;55.904;2022-08-20T00:14:34;49518.22;;;-149.77;42.32
60055;BME280;45930;53.514;55.904;2022-08-20T00:15:37;49486.53;;;-149.77;42.15
60055;BME280;45930;53.514;55.904;2022-08-20T00:16:38;49440.97;;;-149.77;41.95
60055;BME280;45930;53.514;55.904;2022-08-20T00:17:39;49464.75;;;-149.77;41.91
60055;BME280;45930;53.514;55.904;2022-08-20T00:18:41;49433.06;;;-149.77;42.04
60055;BME280;45930;53.514;55.904;2022-08-20T00:19:42;49425.13;;;-149.77;42.19
60055;BME280;45930;53.514;55.904;2022-08-20T00:20:48;49448.91;;;-149.77;42.50
60055;BME280;45930;53.514;55.904;2022-08-20T00:21:49;49496.44;;;-149.77;42.56
60055;BME280;45930;53.514;55.904;2022-08-20T00:22:50;49486.53;;;-149.77;42.78
60055;BME280;45930;53.514;55.904;2022-08-20T00:23:52;49542.00;;;-149.77;42.94
60055;BME280;45930;53.514;55.904;2022-08-20T00:24:53;49547.94;;;-149.77;43.18
60055;BME280;45930;53.514;55.904;2022-08-20T00:25:54;49601.44;;;-149.77;43.73
60055;BME280;45930;53.514;55.904;2022-08-20T00:26:55;49639.06;;;-149.77;43.83
60055;BME280;45930;53.514;55.904;2022-08-20T00:27:56;49639.06;;;-149.77;43.80
60055;BME280;45930;53.514;55.904;2022-08-20T00:28:58;49676.72;;;-149.77;44.00
60055;BME280;45930;53.514;55.904;2022-08-20T00:29:59;49672.75;;;-149.77;43.94
60055;BME280;45930;53.514;55.904;2022-08-20T00:31:03;49710.38;;;-149.77;44.30
60055;BME280;45930;53.514;55.904;2022-08-20T00:32:04;49726.22;;;-149.77;44.39
60055;BME280;45930;53.514;55.904;2022-08-20T00:33:08;49726.22;;;-149.77;44.32
60055;BME280;45930;53.514;55.904;2022-08-20T00:34:09;49748.03;;;-149.77;44.41
60055;BME280;45930;53.514;55.904;2022-08-20T00:35:10;49742.09;;;-149.77;44.28
60055;BME280;45930;53.514;55.904;2022-08-20T00:36:11;49757.94;;;-149.77;44.36
60055;BME280;45930;53.514;55.904;2022-08-20T00:37:12;49720.28;;;-149.77;44.24
60055;BME280;45930;53.514;55.904;2022-08-20T00:38:13;49734.16;;;-149.77;44.21
60055;BME280;45930;53.514;55.904;2022-08-20T00:39:14;49726.22;;;-149.77;44.27
60055;BME280;45930;53.514;55.904;2022-08-20T00:40:22;49817.34;;;-149.77;44.46
60055;BME280;45930;53.514;55.904;2022-08-20T00:41:25;49849.06;;;-149.77;44.76
60055;BME280;45930;53.514;55.904;2022-08-20T00:42:26;49902.53;;;-149.77;45.10
60055;BME280;45930;53.514;55.904;2022-08-20T00:44:30;49979.81;;;-149.77;45.20
60055;BME280;45930;53.514;55.904;2022-08-20T00:45:33;49979.81;;;-149.77;45.13
60055;BME280;45930;53.514;55.904;2022-08-20T00:46:35;49916.41;;;-149.77;45.04
60055;BME280;45930;53.514;55.904;2022-08-20T00:47:37;49896.59;;;-149.77;44.96
60055;BME280;45930;53.514;55.904;2022-08-20T00:48:45;49952.06;;;-149.77;44.81
60055;BME280;45930;53.514;55.904;2022-08-20T00:49:49;49944.16;;;-149.77;45.04
60055;BME280;45930;53.514;55.904;2022-08-20T00:50:50;49952.06;;;-149.77;45.02
60055;BME280;45930;53.514;55.904;2022-08-20T00:52:01;49981.78;;;-149.77;45.04
60055;BME280;45930;53.514;55.904;2022-08-20T00:53:04;50031.31;;;-149.77;45.47
60055;BME280;45930;53.514;55.904;2022-08-20T00:54:13;50074.91;;;-149.77;45.32
60055;BME280;45930;53.514;55.904;2022-08-20T00:55:17;50066.97;;;-149.77;45.53
60055;BME280;45930;53.514;55.904;2022-08-20T00:56:20;50094.72;;;-149.77;45.42
60055;BME280;45930;53.514;55.904;2022-08-20T00:57:25;50130.38;;;-149.77;45.68
60055;BME280;45930;53.514;55.904;2022-08-20T00:58:28;50166.03;;;-149.77;45.74
60055;BME280;45930;53.514;55.904;2022-08-20T00:59:31;50154.16;;;-149.77;45.81
60055;BME280;45930;53.514;55.904;2022-08-20T01:00:39;50110.56;;;-149.77;45.41
60055;BME280;45930;53.514;55.904;2022-08-20T01:01:42;50074.91;;;-149.77;45.32
60055;BME280;45930;53.514;55.904;2022-08-20T01:02:44;50011.50;;;-149.77;45.24
60055;BME280;45930;53.514;55.904;2022-08-20T01:03:45;49924.34;;;-149.77;45.08
60055;BME280;45930;53.514;55.904;2022-08-20T01:04:46;49837.16;;;-149.77;44.39
60055;BME280;45930;53.514;55.904;2022-08-20T01:05:56;49773.78;;;-149.77;44.38
60055;BME280;45930;53.514;55.904;2022-08-20T01:06:57;49720.28;;;-149.77;44.00
60055;BME280;45930;53.514;55.904;2022-08-20T01:07:58;49668.78;;;-149.77;44.07
60055;BME280;45930;53.514;55.904;2022-08-20T01:08:59;49662.84;;;-149.77;43.90
60055;BME280;45930;53.514;55.904;2022-08-20T01:10:09;49660.84;;;-149.77;43.97
60055;BME280;45930;53.514;55.904;2022-08-20T01:11:11;49623.22;;;-149.77;43.74
60055;BME280;45930;53.514;55.904;2022-08-20T01:12:21;49611.34;;;-149.77;43.44
60055;BME280;45930;53.514;55.904;2022-08-20T01:13:23;49585.59;;;-149.77;43.38
60055;BME280;45930;53.514;55.904;2022-08-20T01:14:25;49581.63;;;-149.77;43.45
60055;BME280;45930;53.514;55.904;2022-08-20T01:15:29;49599.44;;;-149.77;43.51
60055;BME280;45930;53.514;55.904;2022-08-20T01:16:31;49599.44;;;-149.77;43.47
60055;BME280;45930;53.514;55.904;2022-08-20T01:17:34;49631.16;;;-149.77;43.90
60055;BME280;45930;53.514;55.904;2022-08-20T01:18:36;49670.75;;;-149.77;44.30
60055;BME280;45930;53.514;55.904;2022-08-20T01:19:44;49688.59;;;-149.77;44.38
60055;BME280;45930;53.514;55.904;2022-08-20T01:21:00;49734.16;;;-149.77;44.46
60055;BME280;45930;53.514;55.904;2022-08-20T01:22:03;49775.75;;;-149.77;44.25
60055;BME280;45930;53.514;55.904;2022-08-20T01:24:36;49742.09;;;-149.77;44.35
60055;BME280;45930;53.514;55.904;2022-08-20T01:26:47;49708.41;;;-149.77;44.00
60055;BME280;45930;53.514;55.904;2022-08-20T01:27:49;49698.50;;;-149.77;44.01
60055;BME280;45930;53.514;55.904;2022-08-20T01:28:56;49702.47;;;-149.77;44.29
60055;BME280;45930;53.514;55.904;2022-08-20T01:30:00;49738.13;;;-149.77;44.16
60055;BME280;45930;53.514;55.904;2022-08-20T01:31:03;49742.09;;;-149.77;44.21
60055;BME280;45930;53.514;55.904;2022-08-20T01:32:05;49732.19;;;-149.77;44.36
60055;BME280;45930;53.514;55.904;2022-08-20T01:33:06;49738.13;;;-149.77;44.33
60055;BME280;45930;53.514;55.904;2022-08-20T01:34:10;49718.31;;;-149.77;44.02
60055;BME280;45930;53.514;55.904;2022-08-20T01:35:11;49706.41;;;-149.77;44.16
60055;BME280;45930;53.514;55.904;2022-08-20T01:36:23;49694.53;;;-149.77;44.03
60055;BME280;45930;53.514;55.904;2022-08-20T01:37:24;49676.72;;;-149.77;43.91
60055;BME280;45930;53.514;55.904;2022-08-20T01:38:27;49668.78;;;-149.77;44.00
60055;BME280;45930;53.514;55.904;2022-08-20T01:39:31;49664.81;;;-149.77;44.16
60055;BME280;45930;53.514;55.904;2022-08-20T01:43:06;49738.13;;;-149.77;44.39
60055;BME280;45930;53.514;55.904;2022-08-20T01:44:08;49775.75;;;-149.77;44.73
60055;BME280;45930;53.514;55.904;2022-08-20T01:45:09;49781.69;;;-149.77;44.62
60055;BME280;45930;53.514;55.904;2022-08-20T01:46:11;49813.41;;;-149.77;44.63
60055;BME280;45930;53.514;55.904;2022-08-20T01:47:14;49815.38;;;-149.77;44.60
60055;BME280;45930;53.514;55.904;2022-08-20T01:48:16;49815.38;;;-149.77;44.64
60055;BME280;45930;53.514;55.904;2022-08-20T01:49:32;49872.84;;;-149.77;44.90
60055;BME280;45930;53.514;55.904;2022-08-20T01:50:36;49900.56;;;-149.77;44.83
60055;BME280;45930;53.514;55.904;2022-08-20T01:51:40;49928.31;;;-149.77;44.89
60055;BME280;45930;53.514;55.904;2022-08-20T01:54:05;50053.13;;;-149.77;45.47
60055;BME280;45930;53.514;55.904;2022-08-20T01:55:08;50037.25;;;-149.77;45.36
60055;BME280;45930;53.514;55.904;2022-08-20T01:56:11;50053.13;;;-149.77;45.36
60055;BME280;45930;53.514;55.904;2022-08-20T01:57:18;50009.53;;;-149.77;45.31
60055;BME280;45930;53.514;55.904;2022-08-20T01:58:20;50015.47;;;-149.77;45.21
60055;BME280;45930;53.514;55.904;2022-08-20T01:59:21;50070.94;;;-149.77;45.43
60055;BME280;45930;53.514;55.904;2022-08-20T02:00:22;50104.63;;;-149.77;45.45
60055;BME280;45930;53.514;55.904;2022-08-20T02:01:28;50104.63;;;-149.77;45.36
60055;BME280;45930;53.514;55.904;2022-08-20T02:02:29;50092.75;;;-149.77;45.20
60055;BME280;45930;53.514;55.904;2022-08-20T02:03:30;50074.91;;;-149.77;45.20
60055;BME280;45930;53.514;55.904;2022-08-20T02:04:31;50090.75;;;-149.77;45.32
60055;BME280;45930;53.514;55.904;2022-08-20T02:05:33;50098.69;;;-149.77;45.55
60055;BME280;45930;53.514;55.904;2022-08-20T02:06:38;50116.50;;;-149.77;45.56
60055;BME280;45930;53.514;55.904;2022-08-20T02:07:40;50106.59;;;-149.77;45.46
60055;BME280;45930;53.514;55.904;2022-08-20T02:08:41;50120.47;;;-149.77;45.41
60055;BME280;45930;53.514;55.904;2022-08-20T02:09:43;50088.78;;;-149.77;45.38
60055;BME280;45930;53.514;55.904;2022-08-20T02:10:44;50039.25;;;-149.77;45.01
60055;BME280;45930;53.514;55.904;2022-08-20T02:11:46;49997.63;;;-149.77;45.06
60055;BME280;45930;53.514;55.904;2022-08-20T02:12:47;49983.78;;;-149.77;44.89
60055;BME280;45930;53.514;55.904;2022-08-20T02:13:49;49995.66;;;-149.77;44.89
60055;BME280;45930;53.514;55.904;2022-08-20T02:14:54;49981.78;;;-149.77;44.88
60055;BME280;45930;53.514;55.904;2022-08-20T02:15:56;49960.00;;;-149.77;44.91
60055;BME280;45930;53.514;55.904;2022-08-20T02:16:57;49975.84;;;-149.77;44.99
60055;BME280;45930;53.514;55.904;2022-08-20T02:18:03;49985.75;;;-149.77;44.84
60055;BME280;45930;53.514;55.904;2022-08-20T02:19:10;49956.03;;;-149.77;45.03
60055;BME280;45930;53.514;55.904;2022-08-20T02:20:16;50033.31;;;-149.77;45.13
60055;BME280;45930;53.514;55.904;2022-08-20T02:25:17;49979.81;;;-149.77;44.85
60055;BME280;45930;53.514;55.904;2022-08-20T02:26:18;49989.72;;;-149.77;44.93
60055;BME280;45930;53.514;55.904;2022-08-20T02:27:19;49987.75;;;-149.77;44.88
60055;BME280;45930;53.514;55.904;2022-08-20T02:28:23;49989.72;;;-149.77;44.99
60055;BME280;45930;53.514;55.904;2022-08-20T02:29:24;50023.41;;;-149.77;44.98
60055;BME280;45930;53.514;55.904;2022-08-20T02:30:28;50033.31;;;-149.77;44.83
60055;BME280;45930;53.514;55.904;2022-08-20T02:31:29;49997.63;;;-149.77;44.86
60055;BME280;45930;53.514;55.904;2022-08-20T02:32:30;50033.31;;;-149.77;44.83
60055;BME280;45930;53.514;55.904;2022-08-20T02:33:31;50011.50;;;-149.77;44.78
60055;BME280;45930;53.514;55.904;2022-08-20T02:34:32;50009.53;;;-149.77;44.78
60055;BME280;45930;53.514;55.904;2022-08-20T02:35:37;50021.41;;;-149.77;44.77
60055;BME280;45930;53.514;55.904;2022-08-20T02:36:40;49993.69;;;-149.77;44.68
60055;BME280;45930;53.514;55.904;2022-08-20T02:37:42;49997.63;;;-149.77;44.73
60055;BME280;45930;53.514;55.904;2022-08-20T02:38:44;50047.16;;;-149.77;44.83
60055;BME280;45930;53.514;55.904;2022-08-20T02:39:46;50029.34;;;-149.77;44.77
60055;BME280;45930;53.514;55.904;2022-08-20T02:40:48;50039.25;;;-149.77;44.68
60055;BME280;45930;53.514;55.904;2022-08-20T02:41:49;50011.50;;;-149.77;44.62
60055;BME280;45930;53.514;55.904;2022-08-20T02:42:50;50035.28;;;-149.77;44.58
60055;BME280;45930;53.514;55.904;2022-08-20T02:43:51;50001.59;;;-149.77;44.63
60055;BME280;45930;53.514;55.904;2022-08-20T02:44:52;50043.22;;;-149.77;44.63
60055;BME280;45930;53.514;55.904;2022-08-20T02:45:53;50017.44;;;-149.77;44.56
60055;BME280;45930;53.514;55.904;2022-08-20T02:46:55;50027.34;;;-149.77;44.59
60055;BME280;45930;53.514;55.904;2022-08-20T02:47:56;49993.69;;;-149.77;44.47
60055;BME280;45930;53.514;55.904;2022-08-20T02:48:58;49981.78;;;-149.77;44.46
60055;BME280;45930;53.514;55.904;2022-08-20T02:49:59;49975.84;;;-149.77;44.50
60055;BME280;45930;53.514;55.904;2022-08-20T02:51:03;49958.03;;;-149.77;44.23
60055;BME280;45930;53.514;55.904;2022-08-20T02:52:05;49979.81;;;-149.77;44.27
60055;BME280;45930;53.514;55.904;2022-08-20T02:53:06;49960.00;;;-149.77;44.25
60055;BME280;45930;53.514;55.904;2022-08-20T02:54:07;49991.69;;;-149.77;44.36
60055;BME280;45930;53.514;55.904;2022-08-20T02:55:09;49995.66;;;-149.77;44.36
60055;BME280;45930;53.514;55.904;2022-08-20T02:56:10;49993.69;;;-149.77;44.23
60055;BME280;45930;53.514;55.904;2022-08-20T02:57:12;50003.59;;;-149.77;44.18
60055;BME280;45930;53.514;55.904;2022-08-20T02:58:14;49971.88;;;-149.77;44.10
60055;BME280;45930;53.514;55.904;2022-08-20T02:59:15;49961.97;;;-149.77;44.16
60055;BME280;45930;53.514;55.904;2022-08-20T03:00:19;49975.84;;;-149.77;44.05
60055;BME280;45930;53.514;55.904;2022-08-20T03:01:20;49928.31;;;-149.77;43.93
60055;BME280;45930;53.514;55.904;2022-08-20T03:02:21;49956.03;;;-149.77;43.84
60055;BME280;45930;53.514;55.904;2022-08-20T03:03:22;49936.22;;;-149.77;43.93
60055;BME280;45930;53.514;55.904;2022-08-20T03:04:23;49954.06;;;-149.77;43.93
60055;BME280;45930;53.514;55.904;2022-08-20T03:05:24;49932.25;;;-149.77;43.83
60055;BME280;45930;53.514;55.904;2022-08-20T03:06:26;49928.31;;;-149.77;43.78
60055;BME280;45930;53.514;55.904;2022-08-20T03:07:27;49930.28;;;-149.77;43.74
60055;BME280;45930;53.514;55.904;2022-08-20T03:08:28;49916.41;;;-149.77;43.65
60055;BME280;45930;53.514;55.904;2022-08-20T03:09:29;49950.09;;;-149.77;43.63
60055;BME280;45930;53.514;55.904;2022-08-20T03:10:32;49936.22;;;-149.77;43.63
60055;BME280;45930;53.514;55.904;2022-08-20T03:11:34;49916.41;;;-149.77;43.63
60055;BME280;45930;53.514;55.904;2022-08-20T03:12:35;49870.84;;;-149.77;43.53
60055;BME280;45930;53.514;55.904;2022-08-20T03:13:37;49888.69;;;-149.77;43.35
60055;BME280;45930;53.514;55.904;2022-08-20T03:14:38;49868.88;;;-149.77;43.32
60055;BME280;45930;53.514;55.904;2022-08-20T03:15:43;49896.59;;;-149.77;43.28
60055;BME280;45930;53.514;55.904;2022-08-20T03:16:44;49884.72;;;-149.77;43.33
60055;BME280;45930;53.514;55.904;2022-08-20T03:17:45;49890.66;;;-149.77;43.33
60055;BME280;45930;53.514;55.904;2022-08-20T03:18:46;49914.44;;;-149.77;43.27
60055;BME280;45930;53.514;55.904;2022-08-20T03:19:47;49926.31;;;-149.77;43.34
60055;BME280;45930;53.514;55.904;2022-08-20T03:20:49;49898.59;;;-149.77;43.36
60055;BME280;45930;53.514;55.904;2022-08-20T03:21:50;49894.63;;;-149.77;43.35
60055;BME280;45930;53.514;55.904;2022-08-20T03:22:50;49872.84;;;-149.77;43.19
60055;BME280;45930;53.514;55.904;2022-08-20T03:23:51;49855.00;;;-149.77;43.02
60055;BME280;45930;53.514;55.904;2022-08-20T03:24:52;49841.13;;;-149.77;42.92
60055;BME280;45930;53.514;55.904;2022-08-20T03:25:53;49797.56;;;-149.77;42.69
60055;BME280;45930;53.514;55.904;2022-08-20T03:26:54;49797.56;;;-149.77;42.70
60055;BME280;45930;53.514;55.904;2022-08-20T03:27:55;49793.59;;;-149.77;42.69
60055;BME280;45930;53.514;55.904;2022-08-20T03:28:56;49789.63;;;-149.77;42.59
60055;BME280;45930;53.514;55.904;2022-08-20T03:29:57;49813.41;;;-149.77;42.54
60055;BME280;45930;53.514;55.904;2022-08-20T03:30:58;49817.34;;;-149.77;42.60
60055;BME280;45930;53.514;55.904;2022-08-20T03:31:59;49827.25;;;-149.77;42.56
60055;BME280;45930;53.514;55.904;2022-08-20T03:33:00;49753.97;;;-149.77;42.25
60055;BME280;45930;53.514;55.904;2022-08-20T03:34:01;49728.22;;;-149.77;42.16
60055;BME280;45930;53.514;55.904;2022-08-20T03:35:04;49726.22;;;-149.77;41.93
60055;BME280;45930;53.514;55.904;2022-08-20T03:36:05;49730.19;;;-149.77;41.88
60055;BME280;45930;53.514;55.904;2022-08-20T03:37:07;49714.34;;;-149.77;42.00
60055;BME280;45930;53.514;55.904;2022-08-20T03:38:10;49718.31;;;-149.77;42.01
60055;BME280;45930;53.514;55.904;2022-08-20T03:39:11;49692.56;;;-149.77;41.82
60055;BME280;45930;53.514;55.904;2022-08-20T03:40:17;49686.63;;;-149.77;41.83
60055;BME280;45930;53.514;55.904;2022-08-20T03:41:18;49720.28;;;-149.77;41.82
60055;BME280;45930;53.514;55.904;2022-08-20T03:42:19;49674.72;;;-149.77;41.67
60055;BME280;45930;53.514;55.904;2022-08-20T03:43:19;49639.06;;;-149.77;41.44
60055;BME280;45930;53.514;55.904;2022-08-20T03:44:20;49627.19;;;-149.77;41.34
60055;BME280;45930;53.514;55.904;2022-08-20T03:45:22;49603.41;;;-149.77;41.29
60055;BME280;45930;53.514;55.904;2022-08-20T03:46:23;49613.31;;;-149.77;41.04
60055;BME280;45930;53.514;55.904;2022-08-20T03:47:25;49621.25;;;-149.77;41.07
60055;BME280;45930;53.514;55.904;2022-08-20T03:48:26;49599.44;;;-149.77;41.04
60055;BME280;45930;53.514;55.904;2022-08-20T03:49:27;49641.06;;;-149.77;41.09
60055;BME280;45930;53.514;55.904;2022-08-20T03:50:30;49595.50;;;-149.77;40.99
60055;BME280;45930;53.514;55.904;2022-08-20T03:51:31;49603.41;;;-149.77;40.96
60055;BME280;45930;53.514;55.904;2022-08-20T03:52:32;49583.59;;;-149.77;40.89
60055;BME280;45930;53.514;55.904;2022-08-20T03:53:33;49581.63;;;-149.77;40.74
60055;BME280;45930;53.514;55.904;2022-08-20T03:54:34;49569.72;;;-149.77;40.49
60055;BME280;45930;53.514;55.904;2022-08-20T03:55:35;49579.63;;;-149.77;40.56
60055;BME280;45930;53.514;55.904;2022-08-20T03:56:36;49569.72;;;-149.77;40.49
60055;BME280;45930;53.514;55.904;2022-08-20T03:57:48;49575.69;;;-149.77;40.56
60055;BME280;45930;53.514;55.904;2022-08-20T03:58:49;49561.81;;;-149.77;40.38
60055;BME280;45930;53.514;55.904;2022-08-20T03:59:50;49567.75;;;-149.77;40.49
60055;BME280;45930;53.514;55.904;2022-08-20T04:00:51;49528.13;;;-149.77;40.40
60055;BME280;45930;53.514;55.904;2022-08-20T04:01:51;49536.06;;;-149.77;40.26
60055;BME280;45930;53.514;55.904;2022-08-20T04:02:53;49555.88;;;-149.77;40.28
60055;BME280;45930;53.514;55.904;2022-08-20T04:03:54;49567.75;;;-149.77;40.33
60055;BME280;45930;53.514;55.904;2022-08-20T04:04:58;49551.91;;;-149.77;40.16
60055;BME280;45930;53.514;55.904;2022-08-20T04:05:58;49553.88;;;-149.77;40.22
60055;BME280;45930;53.514;55.904;2022-08-20T04:06:59;49553.88;;;-149.77;40.36
60055;BME280;45930;53.514;55.904;2022-08-20T04:08:01;49585.59;;;-149.77;40.36
60055;BME280;45930;53.514;55.904;2022-08-20T04:09:02;49571.72;;;-149.77;40.19
60055;BME280;45930;53.514;55.904;2022-08-20T04:10:07;49540.03;;;-149.77;40.02
60055;BME280;45930;53.514;55.904;2022-08-20T04:11:11;49540.03;;;-149.77;39.82
60055;BME280;45930;53.514;55.904;2022-08-20T04:12:12;49508.31;;;-149.77;39.50
60055;BME280;45930;53.514;55.904;2022-08-20T04:13:14;49496.44;;;-149.77;39.55
60055;BME280;45930;53.514;55.904;2022-08-20T04:14:16;49486.53;;;-149.77;39.59
60055;BME280;45930;53.514;55.904;2022-08-20T04:15:18;49476.63;;;-149.77;39.60
60055;BME280;45930;53.514;55.904;2022-08-20T04:16:19;49502.38;;;-149.77;39.54
60055;BME280;45930;53.514;55.904;2022-08-20T04:17:20;49482.56;;;-149.77;39.53
60055;BME280;45930;53.514;55.904;2022-08-20T04:18:22;49464.75;;;-149.77;39.33
60055;BME280;45930;53.514;55.904;2022-08-20T04:19:25;49476.63;;;-149.77;39.35
60055;BME280;45930;53.514;55.904;2022-08-20T04:20:26;49458.81;;;-149.77;39.21
60055;BME280;45930;53.514;55.904;2022-08-20T04:21:27;49484.56;;;-149.77;39.20
60055;BME280;45930;53.514;55.904;2022-08-20T04:22:28;49460.78;;;-149.77;39.21
60055;BME280;45930;53.514;55.904;2022-08-20T04:23:29;49454.84;;;-149.77;39.01
60055;BME280;45930;53.514;55.904;2022-08-20T04:24:31;49472.66;;;-149.77;38.75
60055;BME280;45930;53.514;55.904;2022-08-20T04:25:32;49458.81;;;-149.77;38.91
60055;BME280;45930;53.514;55.904;2022-08-20T04:26:34;49488.50;;;-149.77;38.73
60055;BME280;45930;53.514;55.904;2022-08-20T04:27:37;49470.69;;;-149.77;38.71
60055;BME280;45930;53.514;55.904;2022-08-20T04:28:38;49474.66;;;-149.77;38.72
60055;BME280;45930;53.514;55.904;2022-08-20T04:29:39;49456.81;;;-149.77;38.87
60055;BME280;45930;53.514;55.904;2022-08-20T04:30:42;49498.41;;;-149.77;39.17
60055;BME280;45930;53.514;55.904;2022-08-20T04:31:43;49490.50;;;-149.77;38.89
60055;BME280;45930;53.514;55.904;2022-08-20T04:32:44;49480.59;;;-149.77;38.62
60055;BME280;45930;53.514;55.904;2022-08-20T04:33:45;49437.00;;;-149.77;38.28
60055;BME280;45930;53.514;55.904;2022-08-20T04:34:46;49442.97;;;-149.77;38.27
60055;BME280;45930;53.514;55.904;2022-08-20T04:35:47;49444.94;;;-149.77;38.24
60055;BME280;45930;53.514;55.904;2022-08-20T04:36:48;49446.91;;;-149.77;38.44
60055;BME280;45930;53.514;55.904;2022-08-20T04:37:56;49444.94;;;-149.77;38.19
60055;BME280;45930;53.514;55.904;2022-08-20T04:38:57;49448.91;;;-149.77;38.12
60055;BME280;45930;53.514;55.904;2022-08-20T04:40:04;49440.97;;;-149.77;38.37
60055;BME280;45930;53.514;55.904;2022-08-20T04:41:23;49452.84;;;-149.77;38.16
60055;BME280;45930;53.514;55.904;2022-08-20T04:42:24;49456.81;;;-149.77;37.93
60055;BME280;45930;53.514;55.904;2022-08-20T04:43:29;49421.16;;;-149.77;37.92
60055;BME280;45930;53.514;55.904;2022-08-20T04:44:31;49466.72;;;-149.77;37.86
60055;BME280;45930;53.514;55.904;2022-08-20T04:45:33;49437.00;;;-149.77;37.71
60055;BME280;45930;53.514;55.904;2022-08-20T04:46:34;49458.81;;;-149.77;38.02
60055;BME280;45930;53.514;55.904;2022-08-20T04:47:34;49446.91;;;-149.77;37.99
60055;BME280;45930;53.514;55.904;2022-08-20T04:48:36;49417.19;;;-149.77;37.67
60055;BME280;45930;53.514;55.904;2022-08-20T04:49:40;49442.97;;;-149.77;37.99
60055;BME280;45930;53.514;55.904;2022-08-20T04:50:42;49450.88;;;-149.77;37.83
60055;BME280;45930;53.514;55.904;2022-08-20T04:51:44;49433.06;;;-149.77;37.92
60055;BME280;45930;53.514;55.904;2022-08-20T04:52:45;49446.91;;;-149.77;37.72
60055;BME280;45930;53.514;55.904;2022-08-20T04:53:48;49454.84;;;-149.77;37.95
60055;BME280;45930;53.514;55.904;2022-08-20T04:54:49;49454.84;;;-149.77;37.53
60055;BME280;45930;53.514;55.904;2022-08-20T04:55:51;49437.00;;;-149.77;37.44
60055;BME280;45930;53.514;55.904;2022-08-20T04:56:52;49464.75;;;-149.77;37.65
60055;BME280;45930;53.514;55.904;2022-08-20T04:57:52;49413.25;;;-149.77;37.21
60055;BME280;45930;53.514;55.904;2022-08-20T04:58:57;49456.81;;;-149.77;37.96
60055;BME280;45930;53.514;55.904;2022-08-20T04:59:59;49433.06;;;-149.77;37.82
60055;BME280;45930;53.514;55.904;2022-08-20T05:01:04;49421.16;;;-149.77;37.48
60055;BME280;45930;53.514;55.904;2022-08-20T05:02:05;49435.03;;;-149.77;37.59
60055;BME280;45930;53.514;55.904;2022-08-20T05:03:06;49409.28;;;-149.77;37.22
60055;BME280;45930;53.514;55.904;2022-08-20T05:04:07;49433.06;;;-149.77;37.37
60055;BME280;45930;53.514;55.904;2022-08-20T05:05:08;49403.34;;;-149.77;37.07
60055;BME280;45930;53.514;55.904;2022-08-20T05:06:10;49405.31;;;-149.77;36.85
60055;BME280;45930;53.514;55.904;2022-08-20T05:07:12;49429.09;;;-149.77;36.61
60055;BME280;45930;53.514;55.904;2022-08-20T05:08:16;49399.38;;;-149.77;36.89
60055;BME280;45930;53.514;55.904;2022-08-20T05:09:17;49401.34;;;-149.77;36.94
60055;BME280;45930;53.514;55.904;2022-08-20T05:10:19;49407.31;;;-149.77;37.03
60055;BME280;45930;53.514;55.904;2022-08-20T05:11:20;49381.56;;;-149.77;36.73
60055;BME280;45930;53.514;55.904;2022-08-20T05:12:21;49427.09;;;-149.77;37.21
60055;BME280;45930;53.514;55.904;2022-08-20T05:13:22;49419.19;;;-149.77;37.33
60055;BME280;45930;53.514;55.904;2022-08-20T05:14:23;49417.19;;;-149.77;37.22
60055;BME280;45930;53.514;55.904;2022-08-20T05:15:24;49423.16;;;-149.77;37.04
60055;BME280;45930;53.514;55.904;2022-08-20T05:16:25;49421.16;;;-149.77;37.10
60055;BME280;45930;53.514;55.904;2022-08-20T05:17:26;49433.06;;;-149.77;36.90
60055;BME280;45930;53.514;55.904;2022-08-20T05:18:29;49401.34;;;-149.77;36.90
60055;BME280;45930;53.514;55.904;2022-08-20T05:19:33;49425.13;;;-149.77;36.57
60055;BME280;45930;53.514;55.904;2022-08-20T05:20:40;49419.19;;;-149.77;36.64
60055;BME280;45930;53.514;55.904;2022-08-20T05:21:41;49415.22;;;-149.77;36.64
60055;BME280;45930;53.514;55.904;2022-08-20T05:22:43;49397.41;;;-149.77;36.61
60055;BME280;45930;53.514;55.904;2022-08-20T05:23:44;49403.34;;;-149.77;36.57
60055;BME280;45930;53.514;55.904;2022-08-20T05:24:45;49417.19;;;-149.77;36.57
60055;BME280;45930;53.514;55.904;2022-08-20T05:25:48;49411.25;;;-149.77;36.15
60055;BME280;45930;53.514;55.904;2022-08-20T05:26:52;49417.19;;;-149.77;36.60
60055;BME280;45930;53.514;55.904;2022-08-20T05:28:04;49423.16;;;-149.77;36.23
60055;BME280;45930;53.514;55.904;2022-08-20T05:29:08;49407.31;;;-149.77;36.01
60055;BME280;45930;53.514;55.904;2022-08-20T05:30:10;49427.09;;;-149.77;36.07